createdAt,value
2018-03-29T00:02:23.694Z,99.90
2018-03-29T00:04:51.926Z,99.90
2018-03-29T00:07:20.182Z,99.90
2018-03-29T00:09:49.224Z,99.90
2018-03-29T00:12:17.448Z,99.90
2018-03-29T00:14:46.455Z,99.90
2018-03-29T00:17:14.745Z,99.90
2018-03-29T00:19:43.150Z,99.90
2018-03-29T00:22:11.438Z,99.90
2018-03-29T00:24:39.859Z,99.90
2018-03-29T00:27:09.018Z,99.90
2018-03-29T00:29:37.315Z,99.90
2018-03-29T00:32:05.574Z,99.90
2018-03-29T00:34:33.802Z,99.90
2018-03-29T00:37:02.110Z,99.90
2018-03-29T00:39:30.507Z,99.90
2018-03-29T00:41:58.819Z,99.90
2018-03-29T00:44:27.865Z,99.90
2018-03-29T00:46:56.125Z,99.90
2018-03-29T00:49:24.522Z,99.90
2018-03-29T00:51:52.775Z,99.90
2018-03-29T00:54:21.789Z,99.90
2018-03-29T00:56:50.111Z,99.90
2018-03-29T00:59:18.582Z,99.90
2018-03-29T01:01:47.600Z,99.90
2018-03-29T01:04:16.217Z,99.90
2018-03-29T01:06:45.577Z,99.90
2018-03-29T01:09:13.946Z,99.90
2018-03-29T01:11:42.185Z,99.90
2018-03-29T01:14:10.388Z,99.90
2018-03-29T01:16:40.490Z,99.90
2018-03-29T01:19:08.706Z,99.90
2018-03-29T01:21:41.094Z,99.90
2018-03-29T01:24:09.379Z,99.90
2018-03-29T01:26:43.483Z,99.90
2018-03-29T01:29:28.518Z,99.90
2018-03-29T01:31:58.410Z,99.90
2018-03-29T01:34:30.510Z,99.90
2018-03-29T01:37:06.215Z,99.90
2018-03-29T01:39:40.130Z,99.90
2018-03-29T01:42:15.719Z,99.90
2018-03-29T01:44:44.087Z,99.90
2018-03-29T01:47:12.605Z,99.90
2018-03-29T01:49:42.356Z,99.90
2018-03-29T01:52:11.828Z,99.90
2018-03-29T01:54:40.980Z,99.90
2018-03-29T01:57:09.238Z,99.90
2018-03-29T01:59:38.360Z,99.90
2018-03-29T02:02:06.622Z,99.90
2018-03-29T02:04:34.912Z,99.90
2018-03-29T02:07:03.294Z,99.90
2018-03-29T02:09:32.397Z,99.90
2018-03-29T02:12:00.785Z,99.90
2018-03-29T02:14:29.045Z,99.90
2018-03-29T02:16:57.283Z,99.90
2018-03-29T02:19:26.549Z,99.90
2018-03-29T02:21:55.415Z,99.90
2018-03-29T02:24:23.807Z,99.90
2018-03-29T02:26:53.038Z,99.90
2018-03-29T02:29:21.319Z,99.90
2018-03-29T02:31:49.593Z,99.90
2018-03-29T02:34:18.659Z,99.90
2018-03-29T02:36:46.971Z,99.90
2018-03-29T02:39:16.062Z,99.90
2018-03-29T02:41:45.322Z,99.90
2018-03-29T02:44:13.872Z,99.90
2018-03-29T02:46:42.696Z,99.90
2018-03-29T02:49:11.761Z,99.90
2018-03-29T02:51:40.056Z,99.90
2018-03-29T02:54:08.350Z,99.90
2018-03-29T02:56:37.141Z,99.90
2018-03-29T02:59:05.732Z,99.90
2018-03-29T03:01:33.983Z,99.90
2018-03-29T03:04:02.353Z,99.90
2018-03-29T03:06:30.658Z,99.90
2018-03-29T03:08:59.586Z,99.90
2018-03-29T03:11:29.319Z,99.90
2018-03-29T03:13:58.868Z,99.90
2018-03-29T03:16:27.127Z,99.90
2018-03-29T03:18:55.356Z,99.90
2018-03-29T03:21:24.012Z,99.90
2018-03-29T03:23:52.828Z,99.90
2018-03-29T03:26:21.290Z,99.90
2018-03-29T03:28:49.764Z,99.90
2018-03-29T03:31:17.995Z,99.90
2018-03-29T03:33:47.010Z,99.90
2018-03-29T03:36:15.250Z,99.90
2018-03-29T03:38:44.716Z,99.90
2018-03-29T03:41:13.094Z,99.90
2018-03-29T03:43:42.260Z,99.90
2018-03-29T03:46:10.681Z,99.90
2018-03-29T03:48:38.944Z,99.90
2018-03-29T03:51:07.198Z,99.90
2018-03-29T03:53:35.826Z,99.90
2018-03-29T03:56:04.108Z,99.90
2018-03-29T03:58:32.382Z,99.90
2018-03-29T04:01:00.754Z,99.90
2018-03-29T04:03:29.057Z,99.90
2018-03-29T04:05:57.507Z,99.90
2018-03-29T04:08:26.316Z,99.90
2018-03-29T04:10:54.593Z,99.90
2018-03-29T04:13:23.714Z,99.90
2018-03-29T04:15:52.916Z,99.90
2018-03-29T04:18:21.133Z,99.90
2018-03-29T04:20:49.721Z,99.90
2018-03-29T04:23:17.999Z,99.90
2018-03-29T04:25:47.104Z,99.90
2018-03-29T04:28:15.518Z,99.90
2018-03-29T04:30:43.777Z,99.90
2018-03-29T04:33:12.009Z,99.90
2018-03-29T04:35:40.533Z,99.90
2018-03-29T04:38:08.916Z,99.90
2018-03-29T04:40:37.158Z,99.90
2018-03-29T04:43:05.570Z,99.90
2018-03-29T04:45:33.831Z,99.90
2018-03-29T04:48:02.064Z,99.90
2018-03-29T04:50:30.402Z,99.90
2018-03-29T04:52:58.879Z,99.90
2018-03-29T04:55:27.167Z,99.90
2018-03-29T04:57:55.574Z,99.90
2018-03-29T05:00:25.367Z,99.90
2018-03-29T05:02:53.613Z,99.90
2018-03-29T05:05:22.036Z,99.90
2018-03-29T05:07:51.072Z,99.90
2018-03-29T05:10:20.100Z,99.90
2018-03-29T05:12:48.481Z,99.90
2018-03-29T05:15:17.692Z,99.90
2018-03-29T05:17:46.057Z,99.90
2018-03-29T05:20:14.358Z,99.90
2018-03-29T05:22:42.778Z,99.90
2018-03-29T05:25:11.360Z,99.90
2018-03-29T05:27:39.682Z,99.90
2018-03-29T05:30:07.965Z,99.90
2018-03-29T05:32:36.216Z,99.90
2018-03-29T05:35:04.449Z,99.90
2018-03-29T05:37:33.774Z,99.90
2018-03-29T05:40:02.997Z,99.90
2018-03-29T05:42:32.030Z,99.90
2018-03-29T05:45:00.564Z,99.90
2018-03-29T05:47:28.826Z,99.90
2018-03-29T05:49:57.963Z,99.90
2018-03-29T05:52:26.351Z,99.90
2018-03-29T05:54:54.626Z,99.90
2018-03-29T05:57:23.786Z,99.90
2018-03-29T05:59:52.932Z,99.90
2018-03-29T06:02:21.446Z,99.90
2018-03-29T06:04:49.757Z,99.90
2018-03-29T06:07:18.128Z,99.90
2018-03-29T06:09:46.393Z,99.90
2018-03-29T06:12:15.843Z,99.90
2018-03-29T06:14:45.664Z,99.90
2018-03-29T06:17:19.710Z,99.90
2018-03-29T06:19:49.016Z,99.90
2018-03-29T06:22:17.310Z,99.90
2018-03-29T06:24:46.388Z,99.90
2018-03-29T06:27:14.856Z,99.90
2018-03-29T06:29:43.123Z,99.90
2018-03-29T06:32:11.448Z,99.90
2018-03-29T06:34:39.772Z,99.90
2018-03-29T06:37:08.787Z,99.90
2018-03-29T06:39:37.047Z,99.90
2018-03-29T06:42:05.346Z,99.90
2018-03-29T06:44:36.279Z,99.90
2018-03-29T06:47:04.602Z,99.90
2018-03-29T06:49:32.921Z,99.90
2018-03-29T06:52:01.203Z,99.90
2018-03-29T06:54:30.261Z,99.90
2018-03-29T06:56:58.471Z,99.90
2018-03-29T06:59:26.833Z,99.90
2018-03-29T07:01:55.718Z,99.90
2018-03-29T07:07:05.272Z,99.90
2018-03-29T07:09:33.787Z,99.90
2018-03-29T07:12:02.199Z,99.90
2018-03-29T07:14:31.355Z,99.90
2018-03-29T07:16:59.613Z,99.90
2018-03-29T07:19:28.108Z,99.90
2018-03-29T07:21:56.387Z,99.90
2018-03-29T07:24:24.633Z,99.90
2018-03-29T07:26:53.665Z,99.90
2018-03-29T07:29:21.926Z,99.90
2018-03-29T07:31:50.158Z,99.90
2018-03-29T07:34:18.421Z,99.90
2018-03-29T07:36:46.725Z,99.90
2018-03-29T07:39:15.058Z,99.90
2018-03-29T07:41:43.452Z,99.90
2018-03-29T07:44:12.532Z,99.90
2018-03-29T07:46:40.774Z,99.90
2018-03-29T07:49:08.997Z,99.90
2018-03-29T07:51:37.251Z,99.90
2018-03-29T07:54:06.356Z,99.90
2018-03-29T07:56:34.600Z,99.90
2018-03-29T07:59:02.918Z,99.90
2018-03-29T08:01:31.892Z,99.90
2018-03-29T08:04:00.299Z,99.90
2018-03-29T08:06:28.696Z,99.90
2018-03-29T08:08:57.649Z,99.90
2018-03-29T08:11:25.936Z,99.90
2018-03-29T08:13:54.330Z,99.90
2018-03-29T08:16:22.739Z,99.90
2018-03-29T08:18:51.893Z,99.90
2018-03-29T08:21:20.716Z,99.90
2018-03-29T08:23:49.817Z,99.70
2018-03-29T08:26:18.979Z,99.70
2018-03-29T08:28:47.464Z,99.90
2018-03-29T08:31:15.709Z,99.40
2018-03-29T08:33:44.113Z,98.90
2018-03-29T08:36:12.405Z,98.30
2018-03-29T08:38:40.872Z,97.50
2018-03-29T08:41:09.163Z,97.60
2018-03-29T08:43:37.541Z,96.40
2018-03-29T08:46:05.775Z,95.60
2018-03-29T08:48:34.085Z,95.40
2018-03-29T08:51:02.518Z,95.90
2018-03-29T08:53:31.689Z,93.90
2018-03-29T08:56:00.761Z,94.40
2018-03-29T08:58:29.016Z,94.40
2018-03-29T09:00:57.244Z,92.90
2018-03-29T09:03:25.503Z,93.00
2018-03-29T09:05:53.830Z,93.10
2018-03-29T09:08:22.871Z,93.00
2018-03-29T09:10:51.134Z,92.90
2018-03-29T09:13:19.430Z,94.00
2018-03-29T09:15:47.758Z,93.30
2018-03-29T09:18:16.794Z,93.60
2018-03-29T09:20:45.101Z,93.60
2018-03-29T09:23:13.462Z,92.40
2018-03-29T09:25:41.728Z,90.50
2018-03-29T09:28:09.944Z,91.90
2018-03-29T09:30:38.319Z,91.50
2018-03-29T09:33:06.589Z,90.80
2018-03-29T09:35:34.926Z,90.30
2018-03-29T09:38:03.182Z,91.00
2018-03-29T09:40:32.189Z,90.80
2018-03-29T09:43:00.592Z,90.80
2018-03-29T09:45:28.870Z,91.40
2018-03-29T09:47:57.106Z,91.90
2018-03-29T09:50:26.100Z,91.70
2018-03-29T09:52:55.090Z,91.80
2018-03-29T09:55:24.284Z,91.40
2018-03-29T09:57:52.826Z,91.30
2018-03-29T10:00:27.568Z,87.70
2018-03-29T10:02:55.928Z,87.60
2018-03-29T10:05:30.475Z,83.00
2018-03-29T10:07:58.758Z,83.20
2018-03-29T10:10:27.804Z,78.90
2018-03-29T10:12:56.061Z,78.70
2018-03-29T10:15:24.402Z,79.70
2018-03-29T10:17:54.226Z,79.30
2018-03-29T10:20:22.653Z,79.20
2018-03-29T10:22:51.177Z,80.20
2018-03-29T10:25:19.475Z,74.10
2018-03-29T10:27:47.775Z,75.30
2018-03-29T10:30:17.484Z,72.60
2018-03-29T10:32:46.811Z,71.60
2018-03-29T10:35:15.085Z,71.30
2018-03-29T10:37:43.341Z,70.80
2018-03-29T10:40:11.761Z,73.20
2018-03-29T10:42:40.247Z,71.80
2018-03-29T10:45:09.367Z,69.90
2018-03-29T10:47:37.631Z,69.90
2018-03-29T10:50:06.016Z,67.40
2018-03-29T10:52:34.296Z,70.10
2018-03-29T10:55:02.859Z,70.30
2018-03-29T10:57:31.264Z,70.80
2018-03-29T10:59:59.626Z,73.10
2018-03-29T11:02:27.914Z,73.50
2018-03-29T11:04:56.287Z,72.10
2018-03-29T11:07:26.221Z,75.90
2018-03-29T11:09:55.510Z,76.00
2018-03-29T11:12:24.572Z,76.00
2018-03-29T11:14:52.874Z,75.00
2018-03-29T11:17:21.150Z,72.90
2018-03-29T11:19:49.555Z,71.10
2018-03-29T11:22:18.012Z,74.00
2018-03-29T11:24:46.637Z,66.00
2018-03-29T11:27:15.850Z,61.70
2018-03-29T11:29:44.258Z,63.80
2018-03-29T11:32:12.766Z,65.10
2018-03-29T11:34:41.761Z,65.40
2018-03-29T11:37:10.078Z,67.00
2018-03-29T11:39:38.362Z,65.80
2018-03-29T11:42:07.526Z,67.80
2018-03-29T11:44:36.197Z,67.80
2018-03-29T11:47:05.500Z,69.70
2018-03-29T11:49:33.738Z,68.70
2018-03-29T11:52:02.478Z,67.20
2018-03-29T11:54:31.660Z,67.80
2018-03-29T11:57:01.652Z,66.40
2018-03-29T11:59:29.937Z,66.20
2018-03-29T12:01:58.335Z,67.20
2018-03-29T12:04:26.713Z,71.20
2018-03-29T12:06:55.916Z,70.40
2018-03-29T12:09:24.291Z,70.00
2018-03-29T12:11:52.689Z,67.30
2018-03-29T12:14:21.061Z,66.40
2018-03-29T12:16:49.360Z,70.10
2018-03-29T12:19:18.544Z,74.50
2018-03-29T12:21:46.905Z,74.40
2018-03-29T12:24:15.254Z,73.40
2018-03-29T12:26:43.652Z,73.90
2018-03-29T12:29:12.059Z,71.40
2018-03-29T12:31:41.319Z,69.90
2018-03-29T12:34:09.758Z,69.80
2018-03-29T12:36:38.163Z,68.80
2018-03-29T12:39:07.939Z,66.10
2018-03-29T12:41:36.334Z,66.10
2018-03-29T12:44:04.663Z,69.60
2018-03-29T12:46:32.944Z,72.10
2018-03-29T12:49:01.547Z,70.60
2018-03-29T12:51:29.937Z,68.30
2018-03-29T12:53:59.137Z,71.30
2018-03-29T12:56:39.479Z,71.20
2018-03-29T12:59:07.917Z,67.80
2018-03-29T13:01:37.136Z,62.60
2018-03-29T13:04:06.319Z,63.40
2018-03-29T13:06:35.476Z,61.30
2018-03-29T13:09:04.150Z,61.30
2018-03-29T13:11:32.636Z,61.00
2018-03-29T13:14:01.842Z,66.60
2018-03-29T13:16:30.089Z,66.10
2018-03-29T13:18:58.609Z,66.00
2018-03-29T13:21:26.982Z,59.30
2018-03-29T13:23:55.353Z,55.90
2018-03-29T13:26:23.742Z,56.40
2018-03-29T13:28:52.010Z,55.70
2018-03-29T13:31:20.299Z,56.40
2018-03-29T13:33:48.588Z,57.00
2018-03-29T13:36:16.954Z,57.30
2018-03-29T13:38:45.330Z,59.90
2018-03-29T13:41:13.707Z,56.60
2018-03-29T13:43:41.973Z,59.70
2018-03-29T13:46:10.292Z,56.20
2018-03-29T13:48:39.517Z,57.60
2018-03-29T13:51:07.965Z,57.10
2018-03-29T13:53:38.012Z,59.40
2018-03-29T13:56:06.291Z,59.20
2018-03-29T13:58:35.356Z,59.50
2018-03-29T14:01:04.537Z,55.50
2018-03-29T14:03:32.831Z,55.40
2018-03-29T14:06:01.786Z,58.50
2018-03-29T14:08:30.033Z,58.30
2018-03-29T14:10:58.377Z,52.50
2018-03-29T14:13:26.683Z,54.60
2018-03-29T14:15:55.906Z,55.90
2018-03-29T14:18:24.198Z,55.90
2018-03-29T14:20:52.704Z,58.50
2018-03-29T14:23:20.956Z,55.20
2018-03-29T14:25:49.229Z,54.30
2018-03-29T14:28:17.662Z,52.60
2018-03-29T14:30:46.073Z,54.10
2018-03-29T14:33:14.360Z,55.60
2018-03-29T14:35:43.562Z,53.60
2018-03-29T14:38:11.847Z,53.70
2018-03-29T14:40:40.258Z,53.40
2018-03-29T14:43:09.470Z,53.50
2018-03-29T14:45:38.563Z,53.20
2018-03-29T14:48:07.325Z,53.10
2018-03-29T14:50:36.559Z,54.50
2018-03-29T14:53:04.879Z,54.50
2018-03-29T14:55:33.897Z,57.70
2018-03-29T14:58:02.204Z,57.70
2018-03-29T15:00:31.400Z,56.90
2018-03-29T15:03:00.469Z,57.80
2018-03-29T15:05:28.773Z,57.90
2018-03-29T15:07:57.062Z,57.30
2018-03-29T15:10:25.397Z,58.20
2018-03-29T15:12:53.841Z,59.80
2018-03-29T15:15:23.018Z,59.80
2018-03-29T15:17:51.337Z,59.70
2018-03-29T15:20:19.788Z,57.00
2018-03-29T15:22:48.181Z,59.80
2018-03-29T15:25:16.733Z,61.70
2018-03-29T15:27:45.071Z,59.20
2018-03-29T15:30:14.099Z,60.10
2018-03-29T15:32:42.346Z,60.10
2018-03-29T15:35:10.666Z,61.90
2018-03-29T15:37:38.962Z,61.90
2018-03-29T15:40:08.103Z,58.10
2018-03-29T15:42:36.373Z,58.20
2018-03-29T15:45:05.406Z,57.50
2018-03-29T15:47:33.815Z,57.50
2018-03-29T15:50:02.878Z,57.40
2018-03-29T15:52:31.182Z,57.30
2018-03-29T15:54:59.487Z,58.50
2018-03-29T15:57:28.722Z,59.80
2018-03-29T15:59:56.983Z,59.10
2018-03-29T16:02:26.112Z,60.10
2018-03-29T16:04:54.501Z,60.10
2018-03-29T16:07:22.985Z,60.10
2018-03-29T16:09:51.245Z,57.20
2018-03-29T16:12:19.736Z,57.80
2018-03-29T16:14:48.003Z,58.30
2018-03-29T16:17:16.300Z,57.30
2018-03-29T16:19:45.409Z,58.40
2018-03-29T16:22:15.128Z,59.10
2018-03-29T16:24:43.622Z,59.10
2018-03-29T16:27:12.055Z,60.70
2018-03-29T16:29:40.430Z,58.50
2018-03-29T16:32:08.679Z,59.40
2018-03-29T16:34:37.849Z,60.70
2018-03-29T16:37:06.954Z,61.90
2018-03-29T16:39:36.761Z,64.90
2018-03-29T16:42:05.129Z,65.60
2018-03-29T16:44:33.374Z,63.20
2018-03-29T16:47:01.877Z,62.10
2018-03-29T16:49:30.231Z,66.90
2018-03-29T16:51:58.530Z,66.60
2018-03-29T16:54:26.813Z,66.60
2018-03-29T16:56:55.067Z,66.40
2018-03-29T16:59:34.259Z,65.70
2018-03-29T17:02:03.346Z,66.40
2018-03-29T17:04:31.622Z,66.40
2018-03-29T17:06:59.842Z,64.60
2018-03-29T17:09:28.900Z,67.50
2018-03-29T17:11:57.170Z,67.40
2018-03-29T17:14:25.520Z,68.70
2018-03-29T17:16:53.818Z,66.70
2018-03-29T17:19:22.886Z,68.70
2018-03-29T17:21:51.092Z,67.60
2018-03-29T17:24:19.394Z,69.30
2018-03-29T17:26:48.243Z,67.50
2018-03-29T17:29:16.579Z,68.60
2018-03-29T17:31:44.858Z,68.60
2018-03-29T17:34:13.899Z,67.60
2018-03-29T17:36:43.004Z,66.50
2018-03-29T17:39:11.270Z,66.50
2018-03-29T17:41:39.700Z,66.20
2018-03-29T17:44:08.141Z,68.20
2018-03-29T17:46:36.443Z,68.00
2018-03-29T17:49:04.808Z,69.10
2018-03-29T17:51:33.068Z,70.70
2018-03-29T17:54:01.496Z,71.70
2018-03-29T17:56:29.970Z,72.20
2018-03-29T17:58:58.219Z,72.70
2018-03-29T18:01:26.585Z,72.90
2018-03-29T18:03:54.912Z,73.10
2018-03-29T18:06:24.038Z,71.30
2018-03-29T18:08:53.111Z,71.20
2018-03-29T18:11:23.842Z,71.30
2018-03-29T18:13:52.216Z,71.20
2018-03-29T18:16:20.552Z,70.40
2018-03-29T18:18:49.669Z,68.50
2018-03-29T18:21:19.319Z,66.90
2018-03-29T18:23:49.087Z,68.00
2018-03-29T18:26:19.584Z,67.50
2018-03-29T18:28:51.158Z,68.50
2018-03-29T18:31:20.956Z,68.50
2018-03-29T18:33:52.019Z,70.70
2018-03-29T18:36:21.808Z,69.30
2018-03-29T18:38:54.475Z,69.80
2018-03-29T18:41:26.239Z,73.30
2018-03-29T18:43:58.050Z,71.40
2018-03-29T18:46:27.272Z,71.50
2018-03-29T18:48:55.627Z,71.40
2018-03-29T18:51:24.844Z,76.80
2018-03-29T18:53:54.581Z,78.10
2018-03-29T18:56:23.869Z,79.00
2018-03-29T19:01:33.020Z,81.40
2018-03-29T19:04:02.170Z,86.20
2018-03-29T19:06:32.806Z,86.20
2018-03-29T19:09:01.817Z,89.70
2018-03-29T19:11:30.078Z,90.50
2018-03-29T19:13:58.473Z,90.10
2018-03-29T19:16:27.559Z,92.60
2018-03-29T19:18:55.962Z,92.60
2018-03-29T19:21:24.440Z,93.20
2018-03-29T19:23:53.482Z,94.10
2018-03-29T19:26:21.754Z,94.00
2018-03-29T19:28:49.998Z,93.70
2018-03-29T19:31:18.288Z,93.40
2018-03-29T19:33:47.446Z,93.10
2018-03-29T19:36:16.639Z,93.00
2018-03-29T19:38:45.039Z,93.20
2018-03-29T19:41:13.276Z,93.00
2018-03-29T19:43:41.576Z,92.70
2018-03-29T19:46:09.860Z,93.10
2018-03-29T19:48:38.208Z,92.60
2018-03-29T19:51:06.468Z,92.20
2018-03-29T19:53:34.988Z,91.30
2018-03-29T19:56:03.641Z,91.00
2018-03-29T19:58:32.834Z,91.30
2018-03-29T20:01:01.899Z,92.00
2018-03-29T20:03:30.205Z,92.00
2018-03-29T20:05:59.252Z,91.90
2018-03-29T20:08:28.387Z,92.60
2018-03-29T20:10:56.726Z,92.60
2018-03-29T20:13:24.997Z,93.10
2018-03-29T20:15:53.343Z,93.00
2018-03-29T20:18:21.817Z,93.30
2018-03-29T20:20:51.094Z,94.90
2018-03-29T20:23:19.451Z,94.90
2018-03-29T20:25:47.894Z,95.10
2018-03-29T20:28:16.755Z,95.10
2018-03-29T20:30:45.774Z,96.20
2018-03-29T20:33:14.918Z,96.00
2018-03-29T20:35:43.168Z,96.00
2018-03-29T20:38:11.456Z,96.50
2018-03-29T20:40:40.572Z,96.60
2018-03-29T20:43:08.790Z,96.60
2018-03-29T20:45:37.943Z,97.50
2018-03-29T20:48:07.009Z,97.60
2018-03-29T20:50:36.235Z,97.70
2018-03-29T20:53:04.464Z,97.70
2018-03-29T20:55:32.881Z,97.90
2018-03-29T20:58:01.131Z,98.00
2018-03-29T21:00:30.134Z,98.70
2018-03-29T21:02:58.539Z,98.70
2018-03-29T21:05:26.946Z,98.80
2018-03-29T21:07:55.402Z,98.90
2018-03-29T21:10:23.627Z,99.10
2018-03-29T21:12:51.904Z,99.00
2018-03-29T21:15:20.202Z,99.00
2018-03-29T21:17:49.851Z,99.30
2018-03-29T21:20:18.107Z,99.30
2018-03-29T21:22:47.123Z,99.20
2018-03-29T21:25:15.417Z,99.50
2018-03-29T21:27:44.438Z,99.10
2018-03-29T21:30:12.929Z,99.20
2018-03-29T21:32:41.389Z,99.30
2018-03-29T21:35:09.804Z,99.20
2018-03-29T21:37:38.142Z,99.40
2018-03-29T21:40:06.620Z,99.30
2018-03-29T21:42:34.980Z,99.30
2018-03-29T21:45:03.306Z,99.80
2018-03-29T21:47:33.061Z,99.80
2018-03-29T21:50:01.305Z,99.80
2018-03-29T21:52:31.300Z,99.70
2018-03-29T21:54:59.672Z,99.70
2018-03-29T21:57:27.901Z,99.90
2018-03-29T21:59:56.412Z,99.90
2018-03-29T22:02:26.172Z,99.90
2018-03-29T22:04:54.433Z,99.90
2018-03-29T22:07:23.522Z,99.90
2018-03-29T22:09:51.793Z,99.90
2018-03-29T22:12:21.693Z,99.90
2018-03-29T22:14:50.462Z,99.90
2018-03-29T22:17:18.853Z,99.90
2018-03-29T22:19:47.133Z,99.90
2018-03-29T22:22:15.635Z,99.90
2018-03-29T22:24:44.100Z,99.90
2018-03-29T22:27:12.581Z,99.90
2018-03-29T22:29:41.176Z,99.90
2018-03-29T22:32:09.789Z,99.90
2018-03-29T22:34:39.046Z,99.90
2018-03-29T22:37:09.788Z,99.90
2018-03-29T22:39:38.816Z,99.90
2018-03-29T22:42:07.837Z,99.90
2018-03-29T22:44:36.156Z,99.90
2018-03-29T22:47:04.381Z,99.80
2018-03-29T22:49:33.405Z,99.90
2018-03-29T22:52:01.707Z,99.90
2018-03-29T22:54:30.085Z,99.90
2018-03-29T22:56:58.376Z,99.90
2018-03-29T22:59:26.767Z,99.90
2018-03-29T23:01:55.232Z,99.90
2018-03-29T23:04:24.340Z,99.90
2018-03-29T23:06:53.503Z,99.90
2018-03-29T23:09:21.806Z,99.90
2018-03-29T23:11:50.020Z,99.90
2018-03-29T23:14:20.006Z,99.90
2018-03-29T23:16:48.334Z,99.90
2018-03-29T23:19:16.631Z,99.90
2018-03-29T23:21:44.971Z,99.90
2018-03-29T23:24:13.420Z,99.90
2018-03-29T23:26:42.376Z,99.90
2018-03-29T23:29:11.494Z,99.90
2018-03-29T23:31:39.803Z,99.90
2018-03-29T23:34:08.070Z,99.90
2018-03-29T23:36:36.342Z,99.90
2018-03-29T23:39:04.659Z,99.90
2018-03-29T23:41:33.035Z,99.90
2018-03-29T23:44:01.377Z,99.90
2018-03-29T23:46:29.605Z,99.90
2018-03-29T23:48:57.957Z,99.90
2018-03-29T23:51:26.349Z,99.90
2018-03-29T23:53:54.744Z,99.90
2018-03-29T23:56:23.760Z,99.90
2018-03-29T23:58:52.712Z,99.90
